Terminal Aerodrome Forecast
Issued by NWS

Home | Current Version | Previous Version | Text Only | Print | Product List | Glossary On
Versions: 1 2 3 4 5 6 7 8 9 10 11 12
000
FTUS43 KMPX 030520
TAFRWF
TAF
KRWF 030520Z 0306/0406 18010KT P6SM VCSH SCT060 BKN120
     FM031000 17008KT P6SM VCSH BKN060
     FM031600 29007KT P6SM BKN050
     FM032100 34011G17KT P6SM BKN060
     FM040100 34007KT P6SM SCT080=

USA.gov is the U.S. government's official web portal to all federal, state and local government web resources and services.